sensor_id;sensor_type;location;lat;lon;timestamp;pressure;altitude;pressure_sealevel;temperature;humidity
39789;BME280;25478;42.626;23.320;2023-07-08T00:00:44;93466.47;;;18.11;100.00
39789;BME280;25478;42.626;23.320;2023-07-08T00:03:11;93468.44;;;18.07;100.00
39789;BME280;25478;42.626;23.320;2023-07-08T00:05:36;93459.69;;;18.06;100.00
39789;BME280;25478;42.626;23.320;2023-07-08T00:08:02;93454.38;;;18.06;100.00
39789;BME280;25478;42.626;23.320;2023-07-08T00:10:30;93444.22;;;18.01;100.00
39789;BME280;25478;42.626;23.320;2023-07-08T00:12:57;93443.94;;;17.95;100.00
39789;BME280;25478;42.626;23.320;2023-07-08T00:15:28;93432.69;;;17.88;100.00
39789;BME280;25478;42.626;23.320;2023-07-08T00:17:54;93431.19;;;17.87;100.00
39789;BME280;25478;42.626;23.320;2023-07-08T00:20:41;93437.34;;;17.84;100.00
39789;BME280;25478;42.626;23.320;2023-07-08T00:23:09;93426.72;;;17.80;100.00
39789;BME280;25478;42.626;23.320;2023-07-08T00:25:35;93428.66;;;17.80;100.00
39789;BME280;25478;42.626;23.320;2023-07-08T00:28:00;93425.66;;;17.78;100.00
39789;BME280;25478;42.626;23.320;2023-07-08T00:30:31;93422.66;;;17.76;100.00
39789;BME280;25478;42.626;23.320;2023-07-08T00:32:57;93409.41;;;17.72;100.00
39789;BME280;25478;42.626;23.320;2023-07-08T00:35:44;93408.75;;;17.64;100.00
39789;BME280;25478;42.626;23.320;2023-07-08T00:38:26;93433.31;;;17.76;100.00
39789;BME280;25478;42.626;23.320;2023-07-08T00:40:57;93426.47;;;17.75;100.00
39789;BME280;25478;42.626;23.320;2023-07-08T00:43:36;93420.00;;;17.76;100.00
39789;BME280;25478;42.626;23.320;2023-07-08T00:51:33;93413.16;;;17.75;100.00
39789;BME280;25478;42.626;23.320;2023-07-08T00:53:58;93405.56;;;17.73;100.00
39789;BME280;25478;42.626;23.320;2023-07-08T00:56:30;93391.78;;;17.58;100.00
39789;BME280;25478;42.626;23.320;2023-07-08T00:59:01;93407.47;;;17.72;100.00
39789;BME280;25478;42.626;23.320;2023-07-08T01:01:32;93405.56;;;17.73;100.00
39789;BME280;25478;42.626;23.320;2023-07-08T01:04:06;93378.84;;;17.57;100.00
39789;BME280;25478;42.626;23.320;2023-07-08T01:06:34;93394.97;;;17.69;100.00
39789;BME280;25478;42.626;23.320;2023-07-08T01:09:07;93397.31;;;17.67;100.00
39789;BME280;25478;42.626;23.320;2023-07-08T01:11:36;93395.38;;;17.68;100.00
39789;BME280;25478;42.626;23.320;2023-07-08T01:14:04;93404.94;;;17.65;100.00
39789;BME280;25478;42.626;23.320;2023-07-08T01:16:33;93393.94;;;17.63;100.00
39789;BME280;25478;42.626;23.320;2023-07-08T01:19:03;93394.69;;;17.64;100.00
39789;BME280;25478;42.626;23.320;2023-07-08T01:24:03;93381.13;;;17.58;100.00
39789;BME280;25478;42.626;23.320;2023-07-08T01:26:30;93396.69;;;17.60;100.00
39789;BME280;25478;42.626;23.320;2023-07-08T01:28:57;93398.59;;;17.59;100.00
39789;BME280;25478;42.626;23.320;2023-07-08T01:31:23;93392.53;;;17.59;100.00
39789;BME280;25478;42.626;23.320;2023-07-08T01:33:51;93394.50;;;17.55;100.00
39789;BME280;25478;42.626;23.320;2023-07-08T01:36:17;93391.56;;;17.49;100.00
39789;BME280;25478;42.626;23.320;2023-07-08T01:38:44;93383.22;;;17.47;100.00
39789;BME280;25478;42.626;23.320;2023-07-08T01:41:15;93382.06;;;17.48;100.00
39789;BME280;25478;42.626;23.320;2023-07-08T01:43:41;93372.66;;;17.43;100.00
39789;BME280;25478;42.626;23.320;2023-07-08T01:46:16;93385.22;;;17.43;100.00
39789;BME280;25478;42.626;23.320;2023-07-08T01:48:50;93378.00;;;17.43;100.00
39789;BME280;25478;42.626;23.320;2023-07-08T01:51:17;93367.88;;;17.35;100.00
39789;BME280;25478;42.626;23.320;2023-07-08T01:53:43;93365.97;;;17.35;100.00
39789;BME280;25478;42.626;23.320;2023-07-08T01:56:10;93329.41;;;17.20;100.00
39789;BME280;25478;42.626;23.320;2023-07-08T01:58:36;93363.59;;;17.41;100.00
39789;BME280;25478;42.626;23.320;2023-07-08T02:01:03;93376.16;;;17.40;100.00
39789;BME280;25478;42.626;23.320;2023-07-08T02:03:29;93370.84;;;17.40;100.00
39789;BME280;25478;42.626;23.320;2023-07-08T02:05:55;93366.66;;;17.39;100.00
39789;BME280;25478;42.626;23.320;2023-07-08T02:08:21;93351.22;;;17.31;100.00
39789;BME280;25478;42.626;23.320;2023-07-08T02:10:50;93367.34;;;17.43;100.00
39789;BME280;25478;42.626;23.320;2023-07-08T02:13:17;93367.34;;;17.43;100.00
39789;BME280;25478;42.626;23.320;2023-07-08T02:15:42;93372.72;;;17.40;100.00
39789;BME280;25478;42.626;23.320;2023-07-08T02:18:08;93370.84;;;17.40;100.00
39789;BME280;25478;42.626;23.320;2023-07-08T02:20:34;93360.03;;;17.28;100.00
39789;BME280;25478;42.626;23.320;2023-07-08T02:22:59;93361.19;;;17.27;100.00
39789;BME280;25478;42.626;23.320;2023-07-08T02:25:25;93383.38;;;17.40;100.00
39789;BME280;25478;42.626;23.320;2023-07-08T02:27:52;93361.25;;;17.23;100.00
39789;BME280;25478;42.626;23.320;2023-07-08T02:30:20;93389.47;;;17.40;100.00
39789;BME280;25478;42.626;23.320;2023-07-08T02:32:45;93378.66;;;17.28;100.00
39789;BME280;25478;42.626;23.320;2023-07-08T02:35:26;93401.66;;;17.38;100.00
39789;BME280;25478;42.626;23.320;2023-07-08T02:37:53;93383.56;;;17.29;100.00
39789;BME280;25478;42.626;23.320;2023-07-08T02:40:20;93411.53;;;17.37;100.00
39789;BME280;25478;42.626;23.320;2023-07-08T02:42:46;93401.03;;;17.30;100.00
39789;BME280;25478;42.626;23.320;2023-07-08T02:45:12;93402.06;;;17.36;100.00
39789;BME280;25478;42.626;23.320;2023-07-08T02:47:37;93404.25;;;17.41;100.00
39789;BME280;25478;42.626;23.320;2023-07-08T02:50:03;93375.25;;;17.27;100.00
39789;BME280;25478;42.626;23.320;2023-07-08T02:52:30;93414.16;;;17.41;100.00
39789;BME280;25478;42.626;23.320;2023-07-08T02:54:56;93423.28;;;17.40;100.00
39789;BME280;25478;42.626;23.320;2023-07-08T02:57:21;93419.81;;;17.43;100.00
39789;BME280;25478;42.626;23.320;2023-07-08T02:59:47;93407.66;;;17.42;100.00
39789;BME280;25478;42.626;23.320;2023-07-08T03:02:12;93420.97;;;17.42;100.00
39789;BME280;25478;42.626;23.320;2023-07-08T03:04:39;93417.94;;;17.40;100.00
39789;BME280;25478;42.626;23.320;2023-07-08T03:07:07;93429.44;;;17.37;100.00
39789;BME280;25478;42.626;23.320;2023-07-08T03:09:40;93411.41;;;17.25;100.00
39789;BME280;25478;42.626;23.320;2023-07-08T03:12:08;93424.84;;;17.37;100.00
39789;BME280;25478;42.626;23.320;2023-07-08T03:14:34;93433.16;;;17.39;100.00
39789;BME280;25478;42.626;23.320;2023-07-08T03:17:01;93424.84;;;17.37;100.00
39789;BME280;25478;42.626;23.320;2023-07-08T03:19:27;93421.41;;;17.40;100.00
39789;BME280;25478;42.626;23.320;2023-07-08T03:21:53;93393.47;;;17.29;100.00
39789;BME280;25478;42.626;23.320;2023-07-08T03:24:19;93402.81;;;17.37;100.00
39789;BME280;25478;42.626;23.320;2023-07-08T03:26:45;93414.69;;;17.52;100.00
39789;BME280;25478;42.626;23.320;2023-07-08T03:29:16;93416.28;;;17.50;100.00
39789;BME280;25478;42.626;23.320;2023-07-08T03:31:44;93419.16;;;17.59;100.00
39789;BME280;25478;42.626;23.320;2023-07-08T03:34:11;93417.09;;;17.66;100.00
39789;BME280;25478;42.626;23.320;2023-07-08T03:36:43;93420.84;;;17.69;100.00
39789;BME280;25478;42.626;23.320;2023-07-08T03:39:19;93415.09;;;17.74;100.00
39789;BME280;25478;42.626;23.320;2023-07-08T03:41:45;93381.88;;;17.59;100.00
39789;BME280;25478;42.626;23.320;2023-07-08T03:44:11;93403.38;;;17.68;100.00
39789;BME280;25478;42.626;23.320;2023-07-08T03:46:37;93360.78;;;17.48;100.00
39789;BME280;25478;42.626;23.320;2023-07-08T03:49:05;93408.44;;;17.82;99.24
39789;BME280;25478;42.626;23.320;2023-07-08T03:51:34;93409.97;;;17.83;99.65
39789;BME280;25478;42.626;23.320;2023-07-08T03:54:01;93417.13;;;17.86;99.36
39789;BME280;25478;42.626;23.320;2023-07-08T03:56:29;93413.63;;;17.89;99.16
39789;BME280;25478;42.626;23.320;2023-07-08T03:58:55;93388.25;;;17.85;99.05
39789;BME280;25478;42.626;23.320;2023-07-08T04:01:23;93394.22;;;18.09;98.59
39789;BME280;25478;42.626;23.320;2023-07-08T04:03:54;93406.03;;;18.24;97.69
39789;BME280;25478;42.626;23.320;2023-07-08T04:06:20;93404.53;;;18.23;97.87
39789;BME280;25478;42.626;23.320;2023-07-08T04:08:46;93398.03;;;18.24;97.96
39789;BME280;25478;42.626;23.320;2023-07-08T04:11:18;93407.16;;;18.26;97.95
39789;BME280;25478;42.626;23.320;2023-07-08T04:13:43;93406.47;;;18.22;98.29
39789;BME280;25478;42.626;23.320;2023-07-08T04:16:16;93418.28;;;18.21;98.11
39789;BME280;25478;42.626;23.320;2023-07-08T04:18:42;93413.66;;;18.25;98.10
39789;BME280;25478;42.626;23.320;2023-07-08T04:21:07;93392.47;;;18.18;97.97
39789;BME280;25478;42.626;23.320;2023-07-08T04:23:33;93414.41;;;18.26;97.97
39789;BME280;25478;42.626;23.320;2023-07-08T04:25:59;93422.63;;;18.32;98.32
39789;BME280;25478;42.626;23.320;2023-07-08T04:28:25;93417.31;;;18.32;98.56
39789;BME280;25478;42.626;23.320;2023-07-08T04:30:50;93410.88;;;18.29;98.60
39789;BME280;25478;42.626;23.320;2023-07-08T04:33:16;93422.31;;;18.29;99.19
39789;BME280;25478;42.626;23.320;2023-07-08T04:35:43;93432.22;;;18.29;99.32
39789;BME280;25478;42.626;23.320;2023-07-08T04:38:20;93430.63;;;18.32;98.86
39789;BME280;25478;42.626;23.320;2023-07-08T04:40:47;93435.34;;;18.24;99.50
39789;BME280;25478;42.626;23.320;2023-07-08T04:43:13;93433.72;;;18.30;99.08
39789;BME280;25478;42.626;23.320;2023-07-08T04:45:41;93420.63;;;18.19;99.06
39789;BME280;25478;42.626;23.320;2023-07-08T04:48:13;93438.97;;;18.34;98.70
39789;BME280;25478;42.626;23.320;2023-07-08T04:50:44;93417.38;;;18.28;98.80
39789;BME280;25478;42.626;23.320;2023-07-08T04:53:11;93430.16;;;18.53;98.32
39789;BME280;25478;42.626;23.320;2023-07-08T04:55:39;93435.03;;;18.74;97.35
39789;BME280;25478;42.626;23.320;2023-07-08T04:58:06;93443.38;;;18.93;96.80
39789;BME280;25478;42.626;23.320;2023-07-08T05:00:32;93426.03;;;19.01;95.63
39789;BME280;25478;42.626;23.320;2023-07-08T05:02:57;93440.00;;;19.37;94.48
39789;BME280;25478;42.626;23.320;2023-07-08T05:05:23;93447.72;;;19.48;93.18
39789;BME280;25478;42.626;23.320;2023-07-08T05:07:48;93433.72;;;19.44;92.71
39789;BME280;25478;42.626;23.320;2023-07-08T05:10:15;93450.38;;;19.64;92.90
39789;BME280;25478;42.626;23.320;2023-07-08T05:12:42;93454.31;;;19.89;91.89
39789;BME280;25478;42.626;23.320;2023-07-08T05:15:08;93446.03;;;20.25;90.14
39789;BME280;25478;42.626;23.320;2023-07-08T05:17:34;93444.81;;;20.55;89.90
39789;BME280;25478;42.626;23.320;2023-07-08T05:19:59;93448.66;;;20.79;87.58
39789;BME280;25478;42.626;23.320;2023-07-08T05:22:26;93449.00;;;20.69;87.91
39789;BME280;25478;42.626;23.320;2023-07-08T05:24:53;93451.66;;;20.82;87.72
39789;BME280;25478;42.626;23.320;2023-07-08T05:27:21;93465.44;;;21.05;86.75
39789;BME280;25478;42.626;23.320;2023-07-08T05:29:48;93458.72;;;21.48;84.46
39789;BME280;25478;42.626;23.320;2023-07-08T05:32:13;93464.97;;;21.67;82.53
39789;BME280;25478;42.626;23.320;2023-07-08T05:34:39;93449.03;;;21.85;81.93
39789;BME280;25478;42.626;23.320;2023-07-08T05:37:05;93457.44;;;22.18;80.63
39789;BME280;25478;42.626;23.320;2023-07-08T05:39:31;93436.72;;;22.41;78.59
39789;BME280;25478;42.626;23.320;2023-07-08T05:41:57;93453.25;;;22.70;77.00
39789;BME280;25478;42.626;23.320;2023-07-08T05:44:22;93446.47;;;22.88;76.75
39789;BME280;25478;42.626;23.320;2023-07-08T05:46:49;93453.13;;;23.23;75.46
39789;BME280;25478;42.626;23.320;2023-07-08T05:49:15;93460.00;;;23.52;74.75
39789;BME280;25478;42.626;23.320;2023-07-08T05:51:41;93460.50;;;23.69;73.10
39789;BME280;25478;42.626;23.320;2023-07-08T05:54:06;93460.50;;;23.78;71.43
39789;BME280;25478;42.626;23.320;2023-07-08T05:56:32;93480.06;;;23.78;71.37
39789;BME280;25478;42.626;23.320;2023-07-08T05:58:57;93462.44;;;23.68;70.56
39789;BME280;25478;42.626;23.320;2023-07-08T06:01:23;93453.56;;;23.13;71.83
39789;BME280;25478;42.626;23.320;2023-07-08T06:03:49;93475.56;;;22.89;73.36
39789;BME280;25478;42.626;23.320;2023-07-08T06:06:15;93477.84;;;22.78;74.60
39789;BME280;25478;42.626;23.320;2023-07-08T06:08:40;93473.00;;;22.86;74.05
39789;BME280;25478;42.626;23.320;2023-07-08T06:11:06;93476.19;;;22.62;73.97
39789;BME280;25478;42.626;23.320;2023-07-08T06:13:32;93471.56;;;22.63;75.08
39789;BME280;25478;42.626;23.320;2023-07-08T06:15:57;93478.47;;;22.82;75.20
39789;BME280;25478;42.626;23.320;2023-07-08T06:18:23;93487.13;;;23.17;74.29
39789;BME280;25478;42.626;23.320;2023-07-08T06:20:55;93476.38;;;23.17;74.04
39789;BME280;25478;42.626;23.320;2023-07-08T06:23:21;93476.75;;;22.88;74.66
39789;BME280;25478;42.626;23.320;2023-07-08T06:25:47;93491.03;;;22.54;75.47
39789;BME280;25478;42.626;23.320;2023-07-08T06:28:12;93491.25;;;22.16;76.87
39789;BME280;25478;42.626;23.320;2023-07-08T06:30:38;93498.50;;;21.93;77.82
39789;BME280;25478;42.626;23.320;2023-07-08T06:33:04;93495.66;;;21.88;77.80
39789;BME280;25478;42.626;23.320;2023-07-08T06:35:30;93490.75;;;21.86;78.55
39789;BME280;25478;42.626;23.320;2023-07-08T06:37:56;93492.91;;;21.79;78.55
39789;BME280;25478;42.626;23.320;2023-07-08T06:40:21;93493.25;;;21.68;79.97
39789;BME280;25478;42.626;23.320;2023-07-08T06:42:47;93494.97;;;21.97;79.84
39789;BME280;25478;42.626;23.320;2023-07-08T06:45:22;93487.59;;;22.23;78.57
39789;BME280;25478;42.626;23.320;2023-07-08T06:47:48;93484.41;;;22.15;77.83
39789;BME280;25478;42.626;23.320;2023-07-08T06:50:13;93484.13;;;22.00;77.76
39789;BME280;25478;42.626;23.320;2023-07-08T06:52:39;93464.69;;;21.87;76.61
39789;BME280;25478;42.626;23.320;2023-07-08T06:55:07;93489.97;;;22.21;76.21
39789;BME280;25478;42.626;23.320;2023-07-08T06:57:34;93492.09;;;22.57;74.34
39789;BME280;25478;42.626;23.320;2023-07-08T07:00:00;93486.34;;;22.76;73.96
39789;BME280;25478;42.626;23.320;2023-07-08T07:02:26;93487.28;;;23.14;73.27
39789;BME280;25478;42.626;23.320;2023-07-08T07:04:52;93488.34;;;23.44;70.43
39789;BME280;25478;42.626;23.320;2023-07-08T07:07:17;93493.28;;;23.45;69.61
39789;BME280;25478;42.626;23.320;2023-07-08T07:09:43;93498.81;;;23.51;69.07
39789;BME280;25478;42.626;23.320;2023-07-08T07:12:09;93482.88;;;23.56;68.73
39789;BME280;25478;42.626;23.320;2023-07-08T07:14:34;93492.00;;;23.68;69.04
39789;BME280;25478;42.626;23.320;2023-07-08T07:17:00;93494.22;;;23.70;68.35
39789;BME280;25478;42.626;23.320;2023-07-08T07:19:26;93500.94;;;23.56;69.01
39789;BME280;25478;42.626;23.320;2023-07-08T07:21:51;93494.16;;;23.24;69.80
39789;BME280;25478;42.626;23.320;2023-07-08T07:24:17;93507.09;;;23.07;70.34
39789;BME280;25478;42.626;23.320;2023-07-08T07:26:43;93492.88;;;22.66;71.06
39789;BME280;25478;42.626;23.320;2023-07-08T07:29:08;93508.97;;;22.66;71.41
39789;BME280;25478;42.626;23.320;2023-07-08T07:31:35;93507.38;;;22.78;72.76
39789;BME280;25478;42.626;23.320;2023-07-08T07:34:02;93512.50;;;22.85;71.70
39789;BME280;25478;42.626;23.320;2023-07-08T07:36:28;93517.66;;;22.70;72.66
39789;BME280;25478;42.626;23.320;2023-07-08T07:38:54;93521.84;;;22.50;72.22
39789;BME280;25478;42.626;23.320;2023-07-08T07:41:20;93509.34;;;22.25;71.47
39789;BME280;25478;42.626;23.320;2023-07-08T07:43:46;93517.56;;;22.08;72.06
39789;BME280;25478;42.626;23.320;2023-07-08T07:46:12;93508.69;;;21.99;72.95
39789;BME280;25478;42.626;23.320;2023-07-08T07:48:38;93527.31;;;22.15;73.45
39789;BME280;25478;42.626;23.320;2023-07-08T07:51:04;93522.50;;;22.32;74.94
39789;BME280;25478;42.626;23.320;2023-07-08T07:53:31;93520.81;;;22.47;72.90
39789;BME280;25478;42.626;23.320;2023-07-08T07:56:01;93523.53;;;22.56;72.55
39789;BME280;25478;42.626;23.320;2023-07-08T07:58:27;93534.94;;;22.69;72.38
39789;BME280;25478;42.626;23.320;2023-07-08T08:00:53;93528.28;;;22.83;71.73
39789;BME280;25478;42.626;23.320;2023-07-08T08:03:19;93522.28;;;23.01;70.40
39789;BME280;25478;42.626;23.320;2023-07-08T08:05:45;93534.78;;;22.95;70.03
39789;BME280;25478;42.626;23.320;2023-07-08T08:08:11;93536.59;;;22.76;70.92
39789;BME280;25478;42.626;23.320;2023-07-08T08:10:36;93531.00;;;22.61;71.75
39789;BME280;25478;42.626;23.320;2023-07-08T08:13:02;93525.88;;;22.76;71.16
39789;BME280;25478;42.626;23.320;2023-07-08T08:15:28;93513.81;;;22.81;70.57
39789;BME280;25478;42.626;23.320;2023-07-08T08:17:54;93505.72;;;22.71;70.56
39789;BME280;25478;42.626;23.320;2023-07-08T08:20:22;93527.31;;;22.90;70.16
39789;BME280;25478;42.626;23.320;2023-07-08T08:22:48;93518.94;;;22.88;70.69
39789;BME280;25478;42.626;23.320;2023-07-08T08:25:15;93516.75;;;22.95;69.93
39789;BME280;25478;42.626;23.320;2023-07-08T08:27:41;93514.47;;;22.94;70.46
39789;BME280;25478;42.626;23.320;2023-07-08T08:30:07;93502.84;;;22.88;70.07
39789;BME280;25478;42.626;23.320;2023-07-08T08:32:33;93508.31;;;22.84;70.95
39789;BME280;25478;42.626;23.320;2023-07-08T08:34:59;93507.88;;;22.86;71.40
39789;BME280;25478;42.626;23.320;2023-07-08T08:37:24;93516.28;;;22.88;71.40
39789;BME280;25478;42.626;23.320;2023-07-08T08:39:49;93519.03;;;22.84;71.80
39789;BME280;25478;42.626;23.320;2023-07-08T08:42:40;93507.66;;;22.71;72.30
39789;BME280;25478;42.626;23.320;2023-07-08T08:45:11;93511.13;;;22.81;72.54
39789;BME280;25478;42.626;23.320;2023-07-08T08:47:45;93493.22;;;22.77;72.36
39789;BME280;25478;42.626;23.320;2023-07-08T08:52:46;93482.63;;;22.74;71.66
39789;BME280;25478;42.626;23.320;2023-07-08T08:55:13;93511.19;;;22.90;70.80
39789;BME280;25478;42.626;23.320;2023-07-08T08:57:47;93492.72;;;22.70;72.29
39789;BME280;25478;42.626;23.320;2023-07-08T09:00:20;93499.88;;;22.95;72.11
39789;BME280;25478;42.626;23.320;2023-07-08T09:03:10;93494.47;;;22.86;71.90
39789;BME280;25478;42.626;23.320;2023-07-08T09:05:37;93509.66;;;22.80;72.52
39789;BME280;25478;42.626;23.320;2023-07-08T09:08:24;93511.44;;;22.83;72.89
39789;BME280;25478;42.626;23.320;2023-07-08T09:11:00;93509.84;;;22.85;72.51
39789;BME280;25478;42.626;23.320;2023-07-08T09:13:33;93516.41;;;22.93;71.50
39789;BME280;25478;42.626;23.320;2023-07-08T09:19:25;93506.78;;;23.05;71.83
39789;BME280;25478;42.626;23.320;2023-07-08T09:21:58;93508.72;;;23.05;70.99
39789;BME280;25478;42.626;23.320;2023-07-08T09:26:54;93507.09;;;23.07;70.68
39789;BME280;25478;42.626;23.320;2023-07-08T09:29:22;93513.94;;;23.08;70.66
39789;BME280;25478;42.626;23.320;2023-07-08T09:31:48;93500.19;;;22.97;69.81
39789;BME280;25478;42.626;23.320;2023-07-08T09:34:17;93497.34;;;22.91;70.21
39789;BME280;25478;42.626;23.320;2023-07-08T09:36:46;93503.06;;;23.12;70.67
39789;BME280;25478;42.626;23.320;2023-07-08T09:39:14;93507.59;;;23.24;69.25
39789;BME280;25478;42.626;23.320;2023-07-08T09:41:41;93483.84;;;23.22;69.23
39789;BME280;25478;42.626;23.320;2023-07-08T09:46:39;93503.28;;;23.36;69.33
39789;BME280;25478;42.626;23.320;2023-07-08T09:49:22;93512.41;;;23.38;69.31
39789;BME280;25478;42.626;23.320;2023-07-08T09:51:49;93505.66;;;23.34;69.37
39789;BME280;25478;42.626;23.320;2023-07-08T09:54:17;93509.38;;;23.36;68.11
39789;BME280;25478;42.626;23.320;2023-07-08T09:56:44;93506.22;;;23.28;66.98
39789;BME280;25478;42.626;23.320;2023-07-08T09:59:14;93501.00;;;23.25;67.71
39789;BME280;25478;42.626;23.320;2023-07-08T10:01:41;93501.47;;;23.33;68.78
39789;BME280;25478;42.626;23.320;2023-07-08T10:04:07;93488.69;;;23.46;69.19
39789;BME280;25478;42.626;23.320;2023-07-08T10:06:34;93480.91;;;23.48;69.12
39789;BME280;25478;42.626;23.320;2023-07-08T10:09:05;93505.88;;;23.76;67.86
39789;BME280;25478;42.626;23.320;2023-07-08T10:11:42;93489.94;;;23.81;66.52
39789;BME280;25478;42.626;23.320;2023-07-08T10:14:25;93486.16;;;23.70;66.94
39789;BME280;25478;42.626;23.320;2023-07-08T10:16:51;93489.03;;;23.75;66.90
39789;BME280;25478;42.626;23.320;2023-07-08T10:19:18;93483.34;;;23.82;66.81
39789;BME280;25478;42.626;23.320;2023-07-08T10:21:59;93497.97;;;24.00;67.92
39789;BME280;25478;42.626;23.320;2023-07-08T10:24:47;93491.25;;;24.13;67.74
39789;BME280;25478;42.626;23.320;2023-07-08T10:27:53;93485.72;;;24.17;64.30
39789;BME280;25478;42.626;23.320;2023-07-08T10:30:23;93477.63;;;24.17;64.94
39789;BME280;25478;42.626;23.320;2023-07-08T10:44:21;93460.28;;;24.36;63.32
39789;BME280;25478;42.626;23.320;2023-07-08T10:52:37;93467.91;;;24.20;65.02
39789;BME280;25478;42.626;23.320;2023-07-08T10:55:28;93455.19;;;24.29;64.86
39789;BME280;25478;42.626;23.320;2023-07-08T11:00:53;93460.13;;;24.49;61.93
39789;BME280;25478;42.626;23.320;2023-07-08T11:06:10;93457.91;;;24.81;62.86
39789;BME280;25478;42.626;23.320;2023-07-08T11:08:41;93450.53;;;24.90;62.35
39789;BME280;25478;42.626;23.320;2023-07-08T11:11:29;93452.91;;;24.97;60.45
39789;BME280;25478;42.626;23.320;2023-07-08T11:16:38;93444.47;;;24.71;59.76
39789;BME280;25478;42.626;23.320;2023-07-08T11:19:17;93445.63;;;24.80;58.88
39789;BME280;25478;42.626;23.320;2023-07-08T11:21:51;93441.22;;;24.67;58.98
39789;BME280;25478;42.626;23.320;2023-07-08T11:24:38;93432.72;;;24.60;58.83
39789;BME280;25478;42.626;23.320;2023-07-08T11:27:29;93434.09;;;24.55;59.73
39789;BME280;25478;42.626;23.320;2023-07-08T11:32:29;93436.63;;;24.50;58.17
39789;BME280;25478;42.626;23.320;2023-07-08T11:34:57;93440.22;;;24.47;59.40
39789;BME280;25478;42.626;23.320;2023-07-08T11:37:24;93436.78;;;24.55;60.05
39789;BME280;25478;42.626;23.320;2023-07-08T11:39:58;93433.56;;;24.75;58.14
39789;BME280;25478;42.626;23.320;2023-07-08T11:42:34;93431.69;;;24.90;58.14
39789;BME280;25478;42.626;23.320;2023-07-08T11:45:08;93432.66;;;25.02;56.87
39789;BME280;25478;42.626;23.320;2023-07-08T11:47:41;93439.81;;;25.14;57.35
39789;BME280;25478;42.626;23.320;2023-07-08T11:50:30;93435.69;;;25.28;56.47
39789;BME280;25478;42.626;23.320;2023-07-08T11:53:02;93433.22;;;25.39;57.55
39789;BME280;25478;42.626;23.320;2023-07-08T11:58:08;93427.31;;;25.50;56.26
39789;BME280;25478;42.626;23.320;2023-07-08T12:00:41;93442.59;;;25.44;55.43
39789;BME280;25478;42.626;23.320;2023-07-08T12:03:20;93435.53;;;25.32;54.31
39789;BME280;25478;42.626;23.320;2023-07-08T12:05:46;93426.91;;;25.18;55.43
39789;BME280;25478;42.626;23.320;2023-07-08T12:08:14;93439.34;;;25.16;55.61
39789;BME280;25478;42.626;23.320;2023-07-08T12:10:46;93425.31;;;25.12;56.38
39789;BME280;25478;42.626;23.320;2023-07-08T12:13:14;93431.44;;;25.12;56.43
39789;BME280;25478;42.626;23.320;2023-07-08T12:15:41;93421.31;;;25.07;56.52
39789;BME280;25478;42.626;23.320;2023-07-08T12:20:38;93436.13;;;25.26;54.46
39789;BME280;25478;42.626;23.320;2023-07-08T12:23:13;93435.69;;;25.28;54.00
39789;BME280;25478;42.626;23.320;2023-07-08T12:25:39;93437.75;;;25.33;48.28
39789;BME280;25478;42.626;23.320;2023-07-08T12:28:05;93432.28;;;25.42;48.47
39789;BME280;25478;42.626;23.320;2023-07-08T12:30:32;93435.91;;;25.39;48.01
39789;BME280;25478;42.626;23.320;2023-07-08T12:32:59;93428.19;;;25.32;48.09
39789;BME280;25478;42.626;23.320;2023-07-08T12:35:28;93420.66;;;25.36;48.55
39789;BME280;25478;42.626;23.320;2023-07-08T12:38:23;93423.34;;;25.36;48.67
39789;BME280;25478;42.626;23.320;2023-07-08T12:40:53;93408.97;;;25.39;47.89
39789;BME280;25478;42.626;23.320;2023-07-08T12:43:18;93405.47;;;25.24;48.00
39789;BME280;25478;42.626;23.320;2023-07-08T12:45:44;93410.34;;;25.11;48.42
39789;BME280;25478;42.626;23.320;2023-07-08T12:48:10;93416.22;;;25.00;49.68
39789;BME280;25478;42.626;23.320;2023-07-08T12:50:35;93412.00;;;25.08;50.12
39789;BME280;25478;42.626;23.320;2023-07-08T12:53:05;93425.31;;;25.12;49.37
39789;BME280;25478;42.626;23.320;2023-07-08T12:55:37;93434.31;;;25.09;49.82
39789;BME280;25478;42.626;23.320;2023-07-08T12:58:03;93427.88;;;24.97;49.78
39789;BME280;25478;42.626;23.320;2023-07-08T13:00:37;93430.59;;;24.97;48.93
39789;BME280;25478;42.626;23.320;2023-07-08T13:03:11;93430.34;;;24.86;49.09
39789;BME280;25478;42.626;23.320;2023-07-08T13:05:40;93422.16;;;24.80;49.50
39789;BME280;25478;42.626;23.320;2023-07-08T13:08:14;93435.78;;;24.77;50.06
39789;BME280;25478;42.626;23.320;2023-07-08T13:10:41;93421.28;;;24.74;50.29
39789;BME280;25478;42.626;23.320;2023-07-08T13:13:11;93423.69;;;24.72;50.44
39789;BME280;25478;42.626;23.320;2023-07-08T13:15:40;93405.13;;;24.74;51.43
39789;BME280;25478;42.626;23.320;2023-07-08T13:20:57;93427.31;;;24.93;50.35
39789;BME280;25478;42.626;23.320;2023-07-08T13:23:23;93413.72;;;24.87;50.75
39789;BME280;25478;42.626;23.320;2023-07-08T13:25:52;93438.22;;;25.08;49.91
39789;BME280;25478;42.626;23.320;2023-07-08T13:28:38;93429.31;;;25.16;49.37
39789;BME280;25478;42.626;23.320;2023-07-08T13:31:16;93435.91;;;25.15;49.47
39789;BME280;25478;42.626;23.320;2023-07-08T13:33:53;93415.38;;;25.18;48.92
39789;BME280;25478;42.626;23.320;2023-07-08T13:36:22;93410.88;;;25.24;48.66
39789;BME280;25478;42.626;23.320;2023-07-08T13:38:48;93411.66;;;25.39;48.47
39789;BME280;25478;42.626;23.320;2023-07-08T13:41:23;93425.63;;;25.52;48.29
39789;BME280;25478;42.626;23.320;2023-07-08T13:43:49;93430.66;;;25.60;46.85
39789;BME280;25478;42.626;23.320;2023-07-08T13:46:55;93428.84;;;25.66;47.24
39789;BME280;25478;42.626;23.320;2023-07-08T13:51:50;93438.41;;;25.67;46.93
39789;BME280;25478;42.626;23.320;2023-07-08T13:54:33;93421.91;;;25.74;47.23